^^
Saratoga-Weather Station Historical Data
Daily Summary for August 20, 2020 Units:  English    Metric   Both
Daily Weekly Monthly Yearly Custom
  High: Low: Average:
Temperature: 81.3 °F 58.6 °F 69.6 °F
Dew Point: 58.6 °F 51.8 °F 55 °F
Humidity: 79% 43% 61%
Wind Speed: 7mph 0mph 1.6mph
Wind Gust: 10mph - -
Wind- - SSW
Pressure: 30.1 in 30 in -
Precipitation: 0 in    
Historical Graphs
 
 
Tabular Data for August 20, 2020
Time Temperature Dew Point Pressure Wind Wind Speed Wind Gust Humidity Rainfall Rate (Hourly) solar
00:03 67.6 °F 53.2 °F 30.1 in SW 4 mph 8 mph 60% 0 in 0 W/m2
00:08 67.5 °F 53.6 °F 30.1 in West 0.9 mph 4 mph 61% 0 in 0 W/m2
00:13 67.3 °F 53.4 °F 30.1 in West 2 mph 8 mph 61% 0 in 0 W/m2
00:18 67.3 °F 53.4 °F 30.1 in West 0.9 mph 4 mph 61% 0 in 0 W/m2
00:23 67.1 °F 53.6 °F 30.1 in West 2 mph 8 mph 62% 0 in 0 W/m2
00:28 66.9 °F 53.4 °F 30.1 in West 2 mph 4 mph 62% 0 in 0 W/m2
00:33 66.7 °F 53.2 °F 30.1 in WNW 0.9 mph 5 mph 62% 0 in 0 W/m2
00:38 66.4 °F 53.4 °F 30.1 in Calm   1 mph 63% 0 in 0 W/m2
00:43 66 °F 53.4 °F 30.1 in Calm   3 mph 64% 0 in 0 W/m2
00:48 65.7 °F 53.6 °F 30.1 in West 0.9 mph 1 mph 65% 0 in 0 W/m2
00:53 64.9 °F 53.2 °F 30.1 in Calm   1 mph 66% 0 in 0 W/m2
00:58 64.6 °F 53.4 °F 30.1 in NNW 0.9 mph 1 mph 67% 0 in 0 W/m2
01:03 64 °F 53.2 °F 30.1 in WSW 2 mph 2 mph 68% 0 in 0 W/m2
01:08 63.7 °F 53.2 °F 30.1 in WNW 0.9 mph 4 mph 69% 0 in 0 W/m2
01:13 63.7 °F 53.2 °F 30.1 in WNW 0.9 mph 2 mph 69% 0 in 0 W/m2
01:18 63.5 °F 53.6 °F 30.1 in WSW 0.9 mph 4 mph 70% 0 in 0 W/m2
01:23 63.3 °F 53.4 °F 30.1 in Calm   2 mph 70% 0 in 0 W/m2
01:28 63.3 °F 53.4 °F 30.1 in WSW 0.9 mph 3 mph 70% 0 in 0 W/m2
01:33 63.1 °F 53.6 °F 30.1 in WSW 0.9 mph 1 mph 71% 0 in 0 W/m2
01:38 63 °F 53.4 °F 30.1 in Calm   1 mph 71% 0 in 0 W/m2
01:43 62.8 °F 53.2 °F 30.1 in WSW 0.9 mph 2 mph 71% 0 in 0 W/m2
01:48 62.8 °F 53.2 °F 30.1 in NNW 0.9 mph 2 mph 71% 0 in 0 W/m2
01:54 63.1 °F 53.2 °F 30.1 in NW 2 mph 2 mph 70% 0 in 0 W/m2
01:59 63.3 °F 53.4 °F 30.1 in WNW 0.9 mph 2 mph 70% 0 in 0 W/m2
02:04 63.3 °F 53.4 °F 30.1 in Calm   2 mph 70% 0 in 0 W/m2
02:09 63.1 °F 53.6 °F 30.1 in North 0.9 mph 2 mph 71% 0 in 0 W/m2
02:14 62.8 °F 53.2 °F 30.1 in Calm     71% 0 in 0 W/m2
02:19 62.2 °F 53.1 °F 30.1 in Calm   1 mph 72% 0 in 0 W/m2
02:24 61.9 °F 53.1 °F 30.1 in Calm   1 mph 73% 0 in 0 W/m2
02:29 61.5 °F 53.2 °F 30.1 in Calm   1 mph 74% 0 in 0 W/m2
02:34 61.2 °F 53.2 °F 30.1 in Calm   2 mph 75% 0 in 0 W/m2
02:39 60.8 °F 52.9 °F 30.1 in Calm     75% 0 in 0 W/m2
02:44 60.6 °F 53.1 °F 30.1 in Calm   2 mph 76% 0 in 0 W/m2
02:49 60.4 °F 53.2 °F 30.1 in Calm     77% 0 in 0 W/m2
02:54 60.3 °F 53.1 °F 30.1 in North 0.9 mph 1 mph 77% 0 in 0 W/m2
02:59 60.1 °F 52.9 °F 30.1 in Calm     77% 0 in 0 W/m2
03:04 60.1 °F 52.9 °F 30.1 in Calm   1 mph 77% 0 in 0 W/m2
03:09 59.7 °F 52.9 °F 30.1 in Calm   1 mph 78% 0 in 0 W/m2
03:14 60.1 °F 52.9 °F 30.1 in SW 0.9 mph 2 mph 77% 0 in 0 W/m2
03:19 60.1 °F 52.9 °F 30.1 in Calm     77% 0 in 0 W/m2
03:24 59.9 °F 52.7 °F 30.1 in Calm   1 mph 77% 0 in 0 W/m2
03:29 59.7 °F 52.5 °F 30.1 in SSW 0.9 mph 1 mph 77% 0 in 0 W/m2
03:34 59.5 °F 52.7 °F 30.1 in Calm   1 mph 78% 0 in 0 W/m2
03:39 59.7 °F 52.5 °F 30.1 in Calm   2 mph 77% 0 in 0 W/m2
03:44 60.1 °F 52.9 °F 30.1 in Calm   1 mph 77% 0 in 0 W/m2
03:49 60.3 °F 52.7 °F 30.1 in NNE 0.9 mph 3 mph 76% 0 in 0 W/m2
03:54 60.3 °F 52.7 °F 30.1 in Calm   3 mph 76% 0 in 0 W/m2
03:59 60.3 °F 52.7 °F 30.1 in Calm   1 mph 76% 0 in 0 W/m2
04:04 60.3 °F 52.7 °F 30.1 in SSW 2 mph 2 mph 76% 0 in 0 W/m2
04:09 60.1 °F 52.5 °F 30.1 in Calm     76% 0 in 0 W/m2
04:14 59.9 °F 52.3 °F 30.1 in SSW 0.9 mph 1 mph 76% 0 in 0 W/m2
04:19 59.7 °F 52.5 °F 30.1 in SSW 0.9 mph 1 mph 77% 0 in 0 W/m2
04:24 59.7 °F 52.5 °F 30.1 in Calm     77% 0 in 0 W/m2
04:29 59.5 °F 52.3 °F 30.1 in SSW 2 mph 2 mph 77% 0 in 0 W/m2
04:34 59.5 °F 52.3 °F 30.1 in SSW 0.9 mph 2 mph 77% 0 in 0 W/m2
04:39 59.5 °F 52.3 °F 30.1 in SE 0.9 mph 1 mph 77% 0 in 0 W/m2
04:44 59.7 °F 52.2 °F 30.1 in SSE 0.9 mph 1 mph 76% 0 in 0 W/m2
04:49 59.9 °F 52.3 °F 30.1 in Calm   1 mph 76% 0 in 0 W/m2
04:54 59.7 °F 52.2 °F 30.1 in SSE 0.9 mph 3 mph 76% 0 in 0 W/m2
04:59 59.5 °F 52.3 °F 30.1 in SSE 0.9 mph 2 mph 77% 0 in 0 W/m2
05:04 59.2 °F 52.3 °F 30.1 in SSE 0.9 mph 2 mph 78% 0 in 0 W/m2
05:09 59 °F 52.2 °F 30.1 in SSE 0.9 mph 2 mph 78% 0 in 0 W/m2
05:14 58.8 °F 52 °F 30.1 in SSE 0.9 mph 2 mph 78% 0 in 0 W/m2
05:19 58.6 °F 52.2 °F 30.1 in Calm   1 mph 79% 0 in 0 W/m2
05:24 58.6 °F 52.2 °F 30.1 in SW 0.9 mph 3 mph 79% 0 in 0 W/m2
05:29 58.6 °F 52.2 °F 30.1 in NW 0.9 mph 2 mph 79% 0 in 0 W/m2
05:34 58.8 °F 52 °F 30.1 in Calm     78% 0 in 0 W/m2
05:39 59 °F 52.2 °F 30.1 in Calm   1 mph 78% 0 in 0 W/m2
05:44 59.2 °F 52 °F 30.1 in SW 0.9 mph 2 mph 77% 0 in 0 W/m2
05:49 59 °F 51.8 °F 30.1 in Calm     77% 0 in 5 W/m2
05:54 59 °F 51.8 °F 30.1 in WNW 2.9 mph 3 mph 77% 0 in 7 W/m2
05:59 59.4 °F 52.2 °F 30.1 in WSW 0.9 mph 1 mph 77% 0 in 9 W/m2
06:04 59.4 °F 51.8 °F 30.1 in Calm   2 mph 76% 0 in 12 W/m2
06:09 59.4 °F 51.8 °F 30.1 in West 0.9 mph 3 mph 76% 0 in 14 W/m2
06:14 59.5 °F 52 °F 30.1 in NW 2 mph 3 mph 76% 0 in 18 W/m2
06:19 59.7 °F 51.8 °F 30.1 in West 2 mph 3 mph 75% 0 in 19 W/m2
06:24 59.9 °F 52 °F 30.1 in NNW 2.9 mph 3 mph 75% 0 in 23 W/m2
06:29 60.1 °F 52.2 °F 30.1 in NW 2 mph 2 mph 75% 0 in 25 W/m2
06:34 60.1 °F 52.2 °F 30.1 in Calm   2 mph 75% 0 in 26 W/m2
06:39 60.1 °F 52.2 °F 30.1 in WNW 0.9 mph 2 mph 75% 0 in 28 W/m2
06:44 60.1 °F 52.2 °F 30.1 in Calm   4 mph 75% 0 in 32 W/m2
06:49 60.3 °F 52.3 °F 30.1 in WNW 0.9 mph 3 mph 75% 0 in 33 W/m2
06:54 60.3 °F 52.3 °F 30.1 in WNW 0.9 mph 2 mph 75% 0 in 35 W/m2
06:59 60.3 °F 52.3 °F 30.1 in WNW 0.9 mph 1 mph 75% 0 in 37 W/m2
07:04 60.4 °F 52.5 °F 30.1 in Calm   3 mph 75% 0 in 39 W/m2
07:09 60.4 °F 52.5 °F 30.1 in WNW 2.9 mph 3 mph 75% 0 in 40 W/m2
07:14 60.4 °F 52.5 °F 30.1 in SW 0.9 mph 3 mph 75% 0 in 42 W/m2
07:19 60.6 °F 52.3 °F 30.1 in WNW 0.9 mph 1 mph 74% 0 in 44 W/m2
07:24 60.6 °F 52.3 °F 30.1 in ENE 2 mph 2 mph 74% 0 in 46 W/m2
07:29 60.8 °F 52.5 °F 30.1 in Calm   3 mph 74% 0 in 47 W/m2
07:34 61 °F 52.7 °F 30.1 in Calm     74% 0 in 49 W/m2
07:39 61.2 °F 52.9 °F 30.1 in NNW 0.9 mph 1 mph 74% 0 in 51 W/m2
07:44 61.2 °F 52.9 °F 30.1 in West 0.9 mph 4 mph 74% 0 in 95 W/m2
07:49 61.5 °F 53.2 °F 30.1 in NW 2 mph 4 mph 74% 0 in 237 W/m2
07:54 61.9 °F 53.4 °F 30.1 in Calm   1 mph 74% 0 in 253 W/m2
07:59 62.4 °F 53.2 °F 30.1 in Calm   3 mph 72% 0 in 264 W/m2
08:04 63 °F 53.8 °F 30.1 in NW 2 mph 4 mph 72% 0 in 278 W/m2
08:09 63.3 °F 53.8 °F 30.1 in North 0.9 mph 2 mph 71% 0 in 288 W/m2
08:14 63.5 °F 53.6 °F 30.1 in NE 0.9 mph 3 mph 70% 0 in 306 W/m2
08:19 63.7 °F 53.8 °F 30.1 in NE 0.9 mph 2 mph 70% 0 in 320 W/m2
08:24 64 °F 54.1 °F 30.1 in East 0.9 mph 2 mph 70% 0 in 336 W/m2
08:29 64.2 °F 54.3 °F 30.1 in NW 0.9 mph 2 mph 70% 0 in 346 W/m2
08:34 64.4 °F 54 °F 30.1 in NNW 0.9 mph 2 mph 69% 0 in 360 W/m2
08:39 64.6 °F 54.1 °F 30.1 in NW 2 mph 3 mph 69% 0 in 371 W/m2
08:44 64.8 °F 54.3 °F 30.1 in ENE 2 mph 3 mph 69% 0 in 385 W/m2
08:49 64.9 °F 54.5 °F 30.1 in NNE 0.9 mph 1 mph 69% 0 in 397 W/m2
08:54 65.3 °F 54.9 °F 30.1 in NNE 0.9 mph 3 mph 69% 0 in 408 W/m2
08:59 65.3 °F 54.5 °F 30.1 in WNW 0.9 mph 3 mph 68% 0 in 422 W/m2
09:04 65.1 °F 54.7 °F 30.1 in NW 0.9 mph 4 mph 69% 0 in 434 W/m2
09:09 65.5 °F 55 °F 30.1 in Calm   5 mph 69% 0 in 446 W/m2
09:14 66 °F 55.2 °F 30.1 in North 2 mph 4 mph 68% 0 in 464 W/m2
09:19 66.6 °F 55.2 °F 30.1 in West 2 mph 5 mph 67% 0 in 471 W/m2
09:24 66.6 °F 55.2 °F 30.1 in West 2 mph 4 mph 67% 0 in 482 W/m2
09:30 66.7 °F 55.4 °F 30.1 in NW 2.9 mph 5 mph 67% 0 in 496 W/m2
09:35 66.6 °F 54.9 °F 30.1 in NW 4.9 mph 7 mph 66% 0 in 508 W/m2
09:40 66.9 °F 55.6 °F 30.1 in North 4.9 mph 8 mph 67% 0 in 520 W/m2
09:45 67.3 °F 55.9 °F 30.1 in North 4.9 mph 5 mph 67% 0 in 526 W/m2
09:50 67.3 °F 55.6 °F 30.1 in WNW 2 mph 6 mph 66% 0 in 536 W/m2
09:55 67.5 °F 56.1 °F 30.1 in WNW 6 mph 6 mph 67% 0 in 545 W/m2
10:00 67.6 °F 55.9 °F 30.1 in East 0.9 mph 4 mph 66% 0 in 555 W/m2
10:05 68 °F 56.3 °F 30.1 in NNW 2.9 mph 4 mph 66% 0 in 571 W/m2
10:10 68.4 °F 56.1 °F 30.1 in NW 4 mph 7 mph 65% 0 in 587 W/m2
10:15 68.5 °F 55.9 °F 30.1 in ENE 4 mph 4 mph 64% 0 in 496 W/m2
10:20 68.9 °F 56.3 °F 30.1 in ENE 2 mph 3 mph 64% 0 in 79 W/m2
10:25 69.1 °F 55.9 °F 30.1 in SE 2 mph 4 mph 63% 0 in 608 W/m2
10:30 69.1 °F 55.9 °F 30.1 in East 4 mph 7 mph 63% 0 in 622 W/m2
10:35 69.6 °F 56.5 °F 30.1 in ENE 2 mph 3 mph 63% 0 in 631 W/m2
10:40 70 °F 55.9 °F 30.1 in East 6.9 mph 8 mph 61% 0 in 652 W/m2
10:45 70.3 °F 55.8 °F 30.1 in WSW 0.9 mph 6 mph 60% 0 in 654 W/m2
10:50 70.5 °F 55.9 °F 30.1 in NE 0.9 mph 7 mph 60% 0 in 663 W/m2
10:55 70.5 °F 56.5 °F 30.1 in NW 2 mph 3 mph 61% 0 in 673 W/m2
11:00 70.3 °F 56.3 °F 30.1 in West 0.9 mph 4 mph 61% 0 in 679 W/m2
11:05 70.5 °F 56.5 °F 30.1 in ENE 2 mph 3 mph 61% 0 in 691 W/m2
11:10 71.1 °F 55.9 °F 30.1 in NW 2 mph 4 mph 59% 0 in 710 W/m2
11:15 71.1 °F 56.5 °F 30.1 in ESE 0.9 mph 4 mph 60% 0 in 719 W/m2
11:20 71.6 °F 57 °F 30.1 in ESE 4 mph 4 mph 60% 0 in 715 W/m2
11:25 72 °F 57.7 °F 30.1 in ESE 4 mph 4 mph 61% 0 in 724 W/m2
11:30 72.3 °F 56.7 °F 30.1 in ESE 0.9 mph 5 mph 58% 0 in 712 W/m2
11:35 72.5 °F 57.4 °F 30.1 in South 0.9 mph 2 mph 59% 0 in 740 W/m2
11:41 72.7 °F 57 °F 30.1 in NE 0.9 mph 4 mph 58% 0 in 742 W/m2
11:46 72.9 °F 58.6 °F 30.1 in NW 0.9 mph 3 mph 61% 0 in 742 W/m2
11:51 73.2 °F 57 °F 30.1 in WNW 2 mph 3 mph 57% 0 in 765 W/m2
11:56 73.4 °F 56.7 °F 30.1 in ENE 2 mph 2 mph 56% 0 in 763 W/m2
12:01 73.8 °F 57 °F 30.1 in East 2.9 mph 8 mph 56% 0 in 775 W/m2
12:06 73.8 °F 57.6 °F 30.1 in NE 2 mph 5 mph 57% 0 in 795 W/m2
12:11 74.1 °F 56.8 °F 30.1 in ESE 2 mph 5 mph 55% 0 in 793 W/m2
12:16 74.1 °F 57.4 °F 30.1 in WNW 2 mph 4 mph 56% 0 in 793 W/m2
12:21 74.1 °F 57.4 °F 30.1 in WNW 2 mph 3 mph 56% 0 in 793 W/m2
12:26 74.1 °F 58.5 °F 30.1 in WNW 0.9 mph 3 mph 58% 0 in 847 W/m2
12:31 74.5 °F 56.7 °F 30.1 in South 4 mph 4 mph 54% 0 in 831 W/m2
12:36 74.5 °F 57.7 °F 30.1 in WSW 2.9 mph 3 mph 56% 0 in 749 W/m2
12:41 74.3 °F 56.7 °F 30.1 in West 2.9 mph 3 mph 54% 0 in 837 W/m2
12:46 74.7 °F 56.8 °F 30.1 in WNW 0.9 mph 2 mph 54% 0 in 798 W/m2
12:51 74.8 °F 56.5 °F 30.1 in North 0.9 mph 4 mph 53% 0 in 875 W/m2
12:56 74.8 °F 56.5 °F 30.1 in WNW 0.9 mph 4 mph 53% 0 in 888 W/m2
13:01 74.8 °F 55.6 °F 30.1 in NNW 6 mph 6 mph 51% 0 in 142 W/m2
13:06 74.8 °F 56.1 °F 30.1 in West 0.9 mph 5 mph 52% 0 in 861 W/m2
13:11 74.7 °F 56.8 °F 30.1 in West 0.9 mph 2 mph 54% 0 in 847 W/m2
13:16 75.4 °F 57 °F 30.1 in ENE 2.9 mph 9 mph 53% 0 in 835 W/m2
13:21 75.6 °F 56.7 °F 30.1 in East 2.9 mph 3 mph 52% 0 in 835 W/m2
13:26 75.6 °F 57.2 °F 30.1 in Calm   5 mph 53% 0 in 863 W/m2
13:31 75.9 °F 55.9 °F 30.1 in East 2.9 mph 4 mph 50% 0 in 870 W/m2
13:36 76.1 °F 57.2 °F 30.1 in SSE 2 mph 3 mph 52% 0 in 840 W/m2
13:41 76.1 °F 57.7 °F 30.1 in SE 2.9 mph 4 mph 53% 0 in 884 W/m2
13:46 76.5 °F 55.9 °F 30.1 in NE 0.9 mph 4 mph 49% 0 in 865 W/m2
13:51 76.6 °F 56.1 °F 30.1 in WNW 7 mph 7 mph 49% 0 in 909 W/m2
13:56 76.1 °F 55.6 °F 30.1 in NW 0.9 mph 3 mph 49% 0 in 863 W/m2
14:02 75.7 °F 56.3 °F 30.1 in SSW 2.9 mph 10 mph 51% 0 in 151 W/m2
14:07 75.7 °F 56.8 °F 30.1 in ENE 6 mph 9 mph 52% 0 in 879 W/m2
14:12 75.9 °F 55.9 °F 30.1 in East 2.9 mph 7 mph 50% 0 in 854 W/m2
14:17 76.3 °F 57.4 °F 30.1 in ENE 2 mph 7 mph 52% 0 in 874 W/m2
14:22 76.6 °F 58.3 °F 30.1 in East 2.9 mph 4 mph 53% 0 in 865 W/m2
14:27 77.4 °F 57.7 °F 30.1 in NE 4 mph 4 mph 51% 0 in 868 W/m2
14:32 77.7 °F 56.5 °F 30.1 in NW 2 mph 3 mph 48% 0 in 877 W/m2
14:37 78.1 °F 56.8 °F 30.1 in WNW 4.9 mph 8 mph 48% 0 in 958 W/m2
14:42 78.1 °F 57.4 °F 30.1 in SW 2.9 mph 4 mph 49% 0 in 914 W/m2
14:47 77.9 °F 56.7 °F 30.1 in West 0.9 mph 8 mph 48% 0 in 178 W/m2
14:52 77.5 °F 56.8 °F 30.1 in ENE 4.9 mph 5 mph 49% 0 in 265 W/m2
14:57 77.5 °F 56.8 °F 30.1 in East 2 mph 7 mph 49% 0 in 188 W/m2
15:02 77.4 °F 56.7 °F 30.1 in NE 2.9 mph 4 mph 49% 0 in 220 W/m2
15:07 77.4 °F 56.7 °F 30.1 in SE 0.9 mph 3 mph 49% 0 in 183 W/m2
15:12 77.5 °F 56.3 °F 30.1 in NW 2 mph 6 mph 48% 0 in 902 W/m2
15:17 77.2 °F 56.5 °F 30.1 in ENE 2 mph 3 mph 49% 0 in 169 W/m2
15:22 76.8 °F 55.6 °F 30.1 in NNE 0.9 mph 6 mph 48% 0 in 146 W/m2
15:27 76.6 °F 56.1 °F 30.1 in NW 0.9 mph 3 mph 49% 0 in 171 W/m2
15:32 76.8 °F 56.8 °F 30.1 in WNW 0.9 mph 3 mph 50% 0 in 812 W/m2
15:37 77.5 °F 57.4 °F 30.1 in East 4 mph 7 mph 50% 0 in 819 W/m2
15:42 77.7 °F 56.5 °F 30.1 in NW 2 mph 3 mph 48% 0 in 211 W/m2
15:47 77.5 °F 56.3 °F 30.1 in North 6 mph 9 mph 48% 0 in 469 W/m2
15:52 77.2 °F 56.5 °F 30.1 in ENE 2 mph 4 mph 49% 0 in 158 W/m2
15:57 76.6 °F 56.1 °F 30.1 in North 0.9 mph 3 mph 49% 0 in 139 W/m2
16:02 76.8 °F 56.3 °F 30.1 in NW 2 mph 3 mph 49% 0 in 745 W/m2
16:07 77.5 °F 56.3 °F 30.1 in Calm   2 mph 48% 0 in 744 W/m2
16:12 78.3 °F 56.3 °F 30.1 in WNW 0.9 mph 5 mph 47% 0 in 747 W/m2
16:17 78.6 °F 57.2 °F 30.1 in SW 2 mph 2 mph 48% 0 in 707 W/m2
16:22 79.3 °F 56.8 °F 30.1 in ESE 6 mph 7 mph 46% 0 in 696 W/m2
16:27 79 °F 56.5 °F 30.1 in East 6 mph 8 mph 46% 0 in 160 W/m2
16:33 78.6 °F 56.7 °F 30.1 in ENE 0.9 mph 5 mph 47% 0 in 251 W/m2
16:38 78.4 °F 56.5 °F 30.1 in West 6 mph 6 mph 47% 0 in 670 W/m2
16:43 78.8 °F 55.6 °F 30.1 in WNW 2 mph 5 mph 45% 0 in 615 W/m2
16:48 79 °F 56.5 °F 30.1 in West 2.9 mph 4 mph 46% 0 in 652 W/m2
16:53 79.2 °F 57.2 °F 30.1 in East 2.9 mph 7 mph 47% 0 in 612 W/m2
16:58 79.3 °F 55.6 °F 30.1 in West 0.9 mph 2 mph 44% 0 in 589 W/m2
17:03 79.9 °F 57.2 °F 30.1 in NNW 2 mph 3 mph 46% 0 in 578 W/m2
17:08 80.4 °F 55.9 °F 30.1 in WNW 2.9 mph 4 mph 43% 0 in 578 W/m2
17:13 80.2 °F 55.8 °F 30.1 in NNW 2.9 mph 6 mph 43% 0 in 589 W/m2
17:18 80.2 °F 57 °F 30.1 in SSE 2 mph 3 mph 45% 0 in 626 W/m2
17:23 80.1 °F 56.1 °F 30.1 in WSW 2.9 mph 5 mph 44% 0 in 610 W/m2
17:28 80.2 °F 57 °F 30.1 in NE 2 mph 6 mph 45% 0 in 610 W/m2
17:33 80.4 °F 56.5 °F 30.1 in SE 2.9 mph 4 mph 44% 0 in 578 W/m2
17:38 80.4 °F 56.5 °F 30.1 in ESE 2 mph 3 mph 44% 0 in 589 W/m2
17:43 80.8 °F 56.1 °F 30.1 in West 2 mph 8 mph 43% 0 in 578 W/m2
17:48 81 °F 56.3 °F 30.1 in East 0.9 mph 2 mph 43% 0 in 564 W/m2
17:53 81.1 °F 57.7 °F 30.1 in ESE 2.9 mph 8 mph 45% 0 in 522 W/m2
17:58 81.3 °F 56.7 °F 30.1 in ESE 2 mph 4 mph 43% 0 in 503 W/m2
18:03 81 °F 56.3 °F 30.1 in ENE 4.9 mph 5 mph 43% 0 in 443 W/m2
18:08 80.2 °F 55.8 °F 30.1 in East 0.9 mph 4 mph 43% 0 in 204 W/m2
18:13 79.9 °F 55.4 °F 30.1 in SSW 2 mph 2 mph 43% 0 in 79 W/m2
18:18 79 °F 55.8 °F 30.1 in Calm   1 mph 45% 0 in 77 W/m2
18:23 78.3 °F 55.8 °F 30.1 in ESE 2 mph 2 mph 46% 0 in 378 W/m2
18:29 78.3 °F 55.2 °F 30.1 in NNW 4 mph 5 mph 45% 0 in 362 W/m2
18:34 78.4 °F 55.4 °F 30.1 in WSW 2 mph 2 mph 45% 0 in 65 W/m2
18:39 78.4 °F 55.4 °F 30.1 in NW 0.9 mph 5 mph 45% 0 in 338 W/m2
18:44 79 °F 55.8 °F 30.1 in NNE 0.9 mph 1 mph 45% 0 in 313 W/m2
18:49 79.2 °F 56.7 °F 30.1 in North 2 mph 5 mph 46% 0 in 295 W/m2
18:54 79.5 °F 56.8 °F 30.1 in East 2 mph 6 mph 46% 0 in 283 W/m2
18:59 79.3 °F 56.1 °F 30.1 in East 4.9 mph 6 mph 45% 0 in 262 W/m2
19:04 79 °F 55.8 °F 30.1 in East 6 mph 8 mph 45% 0 in 257 W/m2
19:09 78.8 °F 55 °F 30 in NNW 2 mph 3 mph 44% 0 in 246 W/m2
19:14 78.8 °F 55.6 °F 30 in SE 0.9 mph 8 mph 45% 0 in 237 W/m2
19:19 78.6 °F 55.6 °F 30 in NNE 0.9 mph 1 mph 45% 0 in 227 W/m2
19:24 79.2 °F 55.9 °F 30 in Calm   4 mph 45% 0 in 214 W/m2
19:29 79.5 °F 55.8 °F 30 in Calm   3 mph 44% 0 in 206 W/m2
19:34 79.9 °F 55.9 °F 30 in East 0.9 mph 2 mph 44% 0 in 199 W/m2
19:39 80.1 °F 56.1 °F 30 in Calm   1 mph 44% 0 in 190 W/m2
19:44 80.2 °F 55.8 °F 30.1 in Calm   2 mph 43% 0 in 185 W/m2
19:49 80.2 °F 55.8 °F 30.1 in Calm   1 mph 43% 0 in 176 W/m2
19:54 80.1 °F 56.1 °F 30.1 in ESE 0.9 mph 4 mph 44% 0 in 142 W/m2
19:59 79.5 °F 56.3 °F 30.1 in Calm   2 mph 45% 0 in 125 W/m2
20:04 79.3 °F 56.8 °F 30.1 in Calm   1 mph 46% 0 in 93 W/m2
20:09 79.2 °F 57.7 °F 30.1 in Calm   1 mph 48% 0 in 84 W/m2
20:14 78.8 °F 55.6 °F 30.1 in NE 0.9 mph 2 mph 45% 0 in 76 W/m2
20:19 78.1 °F 55 °F 30.1 in East 0.9 mph 4 mph 45% 0 in 69 W/m2
20:24 77.5 °F 56.8 °F 30.1 in Calm     49% 0 in 39 W/m2
20:29 76.6 °F 54.9 °F 30.1 in SE 0.9 mph 4 mph 47% 0 in 35 W/m2
20:34 76.3 °F 56.8 °F 30.1 in SE 0.9 mph 1 mph 51% 0 in 35 W/m2
20:39 75.4 °F 55.9 °F 30.1 in East 0.9 mph 2 mph 51% 0 in 28 W/m2
20:44 74.8 °F 55 °F 30.1 in NE 0.9 mph 2 mph 50% 0 in 26 W/m2
20:49 74.7 °F 55.4 °F 30.1 in ENE 2 mph 3 mph 51% 0 in 25 W/m2
20:54 74.7 °F 55.4 °F 30.1 in NE 0.9 mph 4 mph 51% 0 in 23 W/m2
20:59 74.7 °F 55.9 °F 30.1 in Calm   3 mph 52% 0 in 19 W/m2
21:04 74.7 °F 55.9 °F 30.1 in WNW 4 mph 6 mph 52% 0 in 14 W/m2
21:09 74.5 °F 56.3 °F 30.1 in Calm   3 mph 53% 0 in 12 W/m2
21:14 74.3 °F 56.7 °F 30.1 in Calm   6 mph 54% 0 in 9 W/m2
21:19 73.9 °F 57.2 °F 30.1 in NE 2 mph 4 mph 56% 0 in 7 W/m2
21:24 73.6 °F 57.4 °F 30.1 in NNW 0.9 mph 2 mph 57% 0 in 0 W/m2
21:29 73.2 °F 57 °F 30.1 in NE 2.9 mph 4 mph 57% 0 in 0 W/m2
21:34 73 °F 57.4 °F 30.1 in NW 2 mph 2 mph 58% 0 in 0 W/m2
21:39 72.7 °F 57 °F 30.1 in SE 2 mph 2 mph 58% 0 in 0 W/m2
21:44 72.5 °F 57.4 °F 30.1 in NNW 0.9 mph 3 mph 59% 0 in 0 W/m2
21:49 72.1 °F 57 °F 30.1 in ENE 0.9 mph 3 mph 59% 0 in 0 W/m2
21:54 72 °F 56.8 °F 30.1 in Calm   1 mph 59% 0 in 0 W/m2
21:59 71.8 °F 57.2 °F 30.1 in North 0.9 mph 2 mph 60% 0 in 0 W/m2
22:04 71.4 °F 56.8 °F 30.1 in WNW 2 mph 3 mph 60% 0 in 0 W/m2
22:09 71.1 °F 56.8 °F 30.1 in NNE 0.9 mph 1 mph 61% 0 in 0 W/m2
22:14 70.9 °F 56.8 °F 30.1 in Calm   1 mph 61% 0 in 0 W/m2
22:19 70.5 °F 56.5 °F 30.1 in NNE 0.9 mph 2 mph 61% 0 in 0 W/m2
22:24 70.3 °F 56.3 °F 30.1 in East 0.9 mph 2 mph 61% 0 in 0 W/m2
22:29 70.2 °F 56.5 °F 30.1 in NNE 2 mph 2 mph 62% 0 in 0 W/m2
22:34 69.8 °F 56.1 °F 30.1 in SE 0.9 mph 1 mph 62% 0 in 0 W/m2
22:39 69.4 °F 56.3 °F 30.1 in ESE 0.9 mph 1 mph 63% 0 in 0 W/m2
22:44 69.3 °F 56.5 °F 30.1 in Calm     64% 0 in 0 W/m2
22:49 68.7 °F 56.1 °F 30.1 in South 0.9 mph 2 mph 64% 0 in 0 W/m2
22:54 68.2 °F 55.9 °F 30.1 in South 0.9 mph 2 mph 65% 0 in 0 W/m2
22:59 67.8 °F 55.6 °F 30.1 in West 0.9 mph 2 mph 65% 0 in 0 W/m2
23:04 67.5 °F 55.2 °F 30.1 in SE 0.9 mph 3 mph 65% 0 in 0 W/m2
23:09 66.9 °F 55.2 °F 30.1 in SSW 0.9 mph 2 mph 66% 0 in 0 W/m2
23:14 66.7 °F 55 °F 30.1 in ENE 0.9 mph 3 mph 66% 0 in 0 W/m2
23:19 66.7 °F 55.4 °F 30.1 in NE 2 mph 2 mph 67% 0 in 0 W/m2
23:25 66.7 °F 55.4 °F 30.1 in West 2 mph 2 mph 67% 0 in 0 W/m2
23:30 66.6 °F 55.2 °F 30.1 in Calm   2 mph 67% 0 in 0 W/m2
23:35 66.2 °F 55.4 °F 30.1 in West 2 mph 2 mph 68% 0 in 0 W/m2
23:40 65.8 °F 55 °F 30.1 in NW 2.9 mph 3 mph 68% 0 in 0 W/m2
23:45 65.7 °F 54.9 °F 30.1 in SW 0.9 mph 2 mph 68% 0 in 0 W/m2
23:50 65.5 °F 55 °F 30.1 in SW 0.9 mph 1 mph 69% 0 in 0 W/m2
23:55 64.9 °F 54.9 °F 30.1 in ESE 0.9 mph 4 mph 70% 0 in 0 W/m2
Juneau County Weather
Compliments of Weather Underground - 4 mb